Time;durP1;ratioP1;P1;durP2;ratioP2;P2;SDS_P1;SDS_P2;PMS_P1;PMS_P2;Temp;Humidity;BMP_temperature;BMP_pressure;BME280_temperature;BME280_humidity;BME280_pressure;Samples;Min_cycle;Max_cycle;Signal;HPM_P1;HPM_P2
2023/06/09 00:00:18;;;;;;;7.27;6.57;;;15.30;99.90;;;;;;5150718;27;20236;-66
2023/06/09 00:02:47;;;;;;;8.60;7.07;;;15.40;99.90;;;;;;5132103;27;20214;-65
2023/06/09 00:05:13;;;;;;;7.07;6.37;;;15.50;99.90;;;;;;5150764;27;20415;-66
2023/06/09 00:07:39;;;;;;;8.80;6.70;;;15.50;99.90;;;;;;5150706;27;20969;-66
2023/06/09 00:10:06;;;;;;;8.90;7.37;;;15.50;99.90;;;;;;5150698;27;20419;-66
2023/06/09 00:12:31;;;;;;;7.47;6.77;;;15.50;99.90;;;;;;5132237;27;20427;-65
2023/06/09 00:14:58;;;;;;;11.53;7.20;;;15.50;99.90;;;;;;5150735;27;20830;-65
2023/06/09 00:17:25;;;;;;;10.00;7.13;;;15.60;99.90;;;;;;5150558;27;20208;-65
2023/06/09 00:19:52;;;;;;;10.87;7.07;;;15.70;99.90;;;;;;5150477;27;20995;-66
2023/06/09 00:22:19;;;;;;;9.07;7.40;;;15.70;99.90;;;;;;5150603;27;20929;-66
2023/06/09 00:24:45;;;;;;;6.67;6.07;;;15.60;99.90;;;;;;5150700;27;20506;-65
2023/06/09 00:27:11;;;;;;;7.90;5.90;;;15.50;99.90;;;;;;5131942;27;20557;-65
2023/06/09 00:29:37;;;;;;;8.20;6.77;;;15.50;99.90;;;;;;5150971;27;20472;-67
2023/06/09 00:32:04;;;;;;;7.93;5.73;;;15.40;99.90;;;;;;5132549;27;20421;-65
2023/06/09 00:34:30;;;;;;;10.43;6.80;;;15.40;99.90;;;;;;5151084;27;20189;-65
2023/06/09 00:36:55;;;;;;;6.77;6.13;;;15.40;99.90;;;;;;5151070;27;20414;-65
2023/06/09 00:39:22;;;;;;;6.57;5.57;;;15.40;99.90;;;;;;5150917;27;20268;-65
2023/06/09 00:41:48;;;;;;;8.83;6.40;;;15.30;99.90;;;;;;5150905;27;20417;-65
2023/06/09 00:44:15;;;;;;;8.20;6.60;;;15.20;99.90;;;;;;5151035;27;20407;-65
2023/06/09 00:46:42;;;;;;;7.30;6.57;;;15.20;99.90;;;;;;5150809;27;20175;-65
2023/06/09 00:49:09;;;;;;;8.40;7.17;;;15.10;99.90;;;;;;5131750;27;20959;-65
2023/06/09 00:51:36;;;;;;;7.73;6.60;;;15.20;99.90;;;;;;5114583;27;20948;-65
2023/06/09 00:54:03;;;;;;;7.43;6.60;;;15.10;99.90;;;;;;5150198;27;20981;-65
2023/06/09 00:56:31;;;;;;;8.47;7.70;;;15.10;99.90;;;;;;5150216;27;20423;-65
2023/06/09 00:58:57;;;;;;;9.40;7.33;;;15.00;99.90;;;;;;5151294;27;20531;-65
2023/06/09 01:01:23;;;;;;;9.33;7.10;;;15.00;99.90;;;;;;5154488;27;20448;-66
2023/06/09 01:03:50;;;;;;;8.70;6.87;;;14.90;99.90;;;;;;5154405;27;20409;-66
2023/06/09 01:06:38;;;;;;;8.60;7.67;;;14.80;99.90;;;;;;5154288;27;20416;-65
2023/06/09 01:09:26;;;;;;;12.30;8.47;;;14.50;99.90;;;;;;5154138;27;20853;-65
2023/06/09 01:12:03;;;;;;;10.07;7.60;;;14.50;99.90;;;;;;5154192;27;20405;-65
2023/06/09 01:14:44;;;;;;;8.50;7.57;;;14.50;99.90;;;;;;5153890;27;20410;-65
2023/06/09 01:17:13;;;;;;;10.10;7.97;;;14.40;99.90;;;;;;5153846;27;20532;-65
2023/06/09 01:19:51;;;;;;;13.57;8.80;;;14.40;99.90;;;;;;5153929;27;20454;-65
2023/06/09 01:22:59;;;;;;;9.30;7.83;;;14.50;99.90;;;;;;5154117;27;20459;-65
2023/06/09 01:25:38;;;;;;;9.20;8.20;;;14.50;99.90;;;;;;5048778;28;20989;-65
2023/06/09 01:28:11;;;;;;;8.93;8.07;;;14.60;99.90;;;;;;5048976;28;21162;-66
2023/06/09 01:30:40;;;;;;;8.23;7.33;;;14.50;99.90;;;;;;5114263;27;20455;-66
2023/06/09 01:33:12;;;;;;;9.50;7.77;;;14.40;99.90;;;;;;5153870;27;20421;-65
2023/06/09 01:35:39;;;;;;;13.17;9.27;;;14.40;99.90;;;;;;5153586;27;20513;-65
2023/06/09 01:38:07;;;;;;;8.80;7.90;;;14.30;99.90;;;;;;5153544;27;20430;-66
2023/06/09 01:40:33;;;;;;;9.67;7.70;;;14.30;99.90;;;;;;5153513;27;20839;-66
2023/06/09 01:43:04;;;;;;;7.80;7.07;;;14.20;99.90;;;;;;5134508;27;20411;-66
2023/06/09 01:45:30;;;;;;;10.43;9.03;;;14.00;99.90;;;;;;5153603;27;20418;-66
2023/06/09 01:47:55;;;;;;;10.17;8.90;;;13.90;99.90;;;;;;5134390;27;21125;-66
2023/06/09 01:50:53;;;;;;;9.90;8.17;;;13.70;99.90;;;;;;5153369;27;20360;-66
2023/06/09 01:53:26;;;;;;;10.30;8.90;;;13.60;99.90;;;;;;5152532;27;20199;-66
2023/06/09 01:56:07;;;;;;;9.90;8.87;;;13.40;99.90;;;;;;5153232;27;20446;-64
2023/06/09 01:58:41;;;;;;;11.87;9.30;;;13.30;99.90;;;;;;5134294;27;20449;-64
2023/06/09 02:01:08;;;;;;;16.97;8.30;;;13.30;99.90;;;;;;5153065;27;20465;-66
2023/06/09 02:03:38;;;;;;;11.23;9.37;;;13.30;99.90;;;;;;5153201;27;20414;-65
2023/06/09 02:06:05;;;;;;;12.93;8.03;;;13.40;99.90;;;;;;5153276;27;20418;-65
2023/06/09 02:08:31;;;;;;;8.90;8.00;;;13.50;99.90;;;;;;5152809;27;20436;-65
2023/06/09 02:10:57;;;;;;;9.60;7.60;;;13.60;99.90;;;;;;5153037;27;20412;-66
2023/06/09 02:13:22;;;;;;;10.13;8.80;;;13.50;99.90;;;;;;5152924;27;20500;-65
2023/06/09 02:15:48;;;;;;;11.13;8.47;;;13.50;99.90;;;;;;5152946;27;20173;-66
2023/06/09 02:18:20;;;;;;;11.43;8.20;;;13.40;99.90;;;;;;5152828;27;20827;-65
2023/06/09 02:20:47;;;;;;;13.00;7.63;;;13.50;99.90;;;;;;5135376;27;20465;-65
2023/06/09 02:23:14;;;;;;;18.30;8.30;;;13.60;99.90;;;;;;5152681;27;20426;-66
2023/06/09 02:25:40;;;;;;;9.13;8.23;;;13.60;99.90;;;;;;5152642;27;20454;-65
2023/06/09 02:28:06;;;;;;;9.40;8.13;;;13.60;99.90;;;;;;5133778;27;20892;-65
2023/06/09 02:30:33;;;;;;;9.60;7.93;;;13.50;99.90;;;;;;5152808;27;20181;-66
2023/06/09 02:33:00;;;;;;;9.40;8.40;;;13.50;99.90;;;;;;5153090;27;20513;-66
2023/06/09 02:35:26;;;;;;;10.50;8.37;;;13.50;99.90;;;;;;5152878;27;20420;-65
2023/06/09 02:37:54;;;;;;;10.37;8.60;;;13.50;99.90;;;;;;5153037;27;20462;-66
2023/06/09 02:40:20;;;;;;;10.20;8.33;;;13.60;99.90;;;;;;5153148;27;20454;-65
2023/06/09 02:42:47;;;;;;;9.90;8.40;;;13.60;99.90;;;;;;5134354;27;20421;-66
2023/06/09 02:45:12;;;;;;;9.93;7.80;;;13.50;99.90;;;;;;5153335;27;20782;-66
2023/06/09 02:47:38;;;;;;;10.03;8.77;;;13.40;99.90;;;;;;5117112;27;20445;-66
2023/06/09 02:50:05;;;;;;;10.97;8.50;;;13.30;99.90;;;;;;5152869;27;20184;-66
2023/06/09 02:52:31;;;;;;;8.97;7.73;;;13.10;99.90;;;;;;5152947;27;20414;-66
2023/06/09 02:54:57;;;;;;;10.17;8.20;;;12.90;99.90;;;;;;5134091;27;20791;-66
2023/06/09 02:57:23;;;;;;;9.63;8.63;;;12.80;99.90;;;;;;5152634;27;20771;-65
2023/06/09 02:59:49;;;;;;;11.70;8.20;;;12.70;99.90;;;;;;5152332;27;20874;-66
2023/06/09 03:02:15;;;;;;;13.20;7.40;;;12.80;99.90;;;;;;5151977;27;20436;-66
2023/06/09 03:04:42;;;;;;;8.10;6.90;;;12.90;99.90;;;;;;5133517;27;20437;-66
2023/06/09 03:07:09;;;;;;;10.60;8.77;;;13.00;99.90;;;;;;5151860;27;20452;-66
2023/06/09 03:09:35;;;;;;;8.20;7.40;;;13.10;99.90;;;;;;5151757;27;20460;-66
2023/06/09 03:12:01;;;;;;;12.60;8.77;;;13.20;99.90;;;;;;5151983;27;20422;-66
2023/06/09 03:14:27;;;;;;;14.90;10.00;;;13.10;99.90;;;;;;5151987;27;20431;-66
2023/06/09 03:16:53;;;;;;;9.73;8.60;;;13.10;99.90;;;;;;5133051;27;20458;-66
2023/06/09 03:19:19;;;;;;;12.33;8.83;;;13.00;99.90;;;;;;5133002;27;20196;-66
2023/06/09 03:21:45;;;;;;;9.93;8.87;;;13.10;99.90;;;;;;5151056;27;20445;-66
2023/06/09 03:24:11;;;;;;;12.30;8.97;;;13.10;99.90;;;;;;5151347;27;20928;-66
2023/06/09 03:26:37;;;;;;;12.13;9.83;;;13.20;99.90;;;;;;5151336;27;20603;-66
2023/06/09 03:29:03;;;;;;;12.17;9.07;;;13.30;99.90;;;;;;5151391;27;20498;-65
2023/06/09 03:31:29;;;;;;;10.17;8.87;;;13.30;99.90;;;;;;5151505;27;20413;-65
2023/06/09 03:33:56;;;;;;;11.33;10.07;;;13.30;99.90;;;;;;5151321;27;20180;-66
2023/06/09 03:36:23;;;;;;;11.60;9.73;;;13.20;99.90;;;;;;5132804;27;20176;-66
2023/06/09 03:38:49;;;;;;;11.47;10.17;;;13.20;99.90;;;;;;5150998;27;20473;-66
2023/06/09 03:41:15;;;;;;;10.40;9.30;;;13.20;99.90;;;;;;5132430;27;20478;-65
2023/06/09 03:43:41;;;;;;;11.10;9.30;;;13.10;99.90;;;;;;5151118;27;20422;-66
2023/06/09 03:46:06;;;;;;;11.63;9.20;;;13.20;99.90;;;;;;5151396;27;20176;-66
2023/06/09 03:48:32;;;;;;;10.13;8.47;;;13.10;99.90;;;;;;5150789;27;20568;-66
2023/06/09 03:50:58;;;;;;;11.90;8.87;;;13.10;99.90;;;;;;5132184;27;20180;-66
2023/06/09 03:53:23;;;;;;;11.90;9.30;;;13.20;99.90;;;;;;5150927;27;20218;-66
2023/06/09 03:55:49;;;;;;;12.23;9.27;;;13.20;99.90;;;;;;5151263;27;20185;-66
2023/06/09 03:58:14;;;;;;;9.70;8.70;;;13.20;99.90;;;;;;5150735;27;20253;-66
2023/06/09 04:00:40;;;;;;;12.13;9.17;;;13.20;99.90;;;;;;5150787;27;20208;-65
2023/06/09 04:03:08;;;;;;;12.87;8.90;;;13.40;99.90;;;;;;5150662;27;20690;-65
2023/06/09 04:05:34;;;;;;;13.33;9.13;;;13.40;99.90;;;;;;5150865;27;20492;-65
2023/06/09 04:07:59;;;;;;;10.20;9.13;;;13.50;99.90;;;;;;5150553;27;20537;-65
2023/06/09 04:10:25;;;;;;;8.33;7.47;;;13.50;99.90;;;;;;5150724;27;20187;-65
2023/06/09 04:12:51;;;;;;;9.63;8.13;;;13.50;99.90;;;;;;5150657;27;20185;-65
2023/06/09 04:15:17;;;;;;;11.27;8.60;;;13.50;99.90;;;;;;5131710;27;20269;-66
2023/06/09 04:17:43;;;;;;;12.97;8.30;;;13.60;99.90;;;;;;5131572;27;20207;-66
2023/06/09 04:20:09;;;;;;;11.40;8.20;;;13.60;99.90;;;;;;5150350;27;20449;-66
2023/06/09 04:22:35;;;;;;;11.03;8.13;;;13.60;99.90;;;;;;5150293;27;20183;-66
2023/06/09 04:25:04;;;;;;;12.00;8.90;;;13.70;99.90;;;;;;5150605;27;20291;-66
2023/06/09 04:27:30;;;;;;;11.87;8.47;;;13.80;99.90;;;;;;5150319;27;20493;-66
2023/06/09 04:29:57;;;;;;;10.60;8.70;;;13.70;99.90;;;;;;5150195;27;20946;-66
2023/06/09 04:32:23;;;;;;;11.50;8.90;;;13.40;99.90;;;;;;5150337;27;20436;-66
2023/06/09 04:34:49;;;;;;;14.00;9.13;;;13.40;99.90;;;;;;5149855;27;20494;-65
2023/06/09 04:37:15;;;;;;;13.47;9.30;;;13.50;99.90;;;;;;5150304;27;21128;-65
2023/06/09 04:39:45;;;;;;;10.27;8.90;;;13.70;99.90;;;;;;5150029;27;20213;-66
2023/06/09 04:42:12;;;;;;;12.10;9.30;;;13.80;99.90;;;;;;5130449;27;20180;-66
2023/06/09 04:44:39;;;;;;;14.20;8.43;;;13.90;99.90;;;;;;5149193;27;20415;-65
2023/06/09 04:47:05;;;;;;;13.03;8.90;;;14.20;99.90;;;;;;5148422;27;20437;-65
2023/06/09 04:49:31;;;;;;;10.93;8.90;;;14.40;99.90;;;;;;5149568;27;20409;-64
2023/06/09 04:51:57;;;;;;;12.40;9.13;;;14.50;99.90;;;;;;5149417;27;20417;-65
2023/06/09 04:54:25;;;;;;;9.80;8.80;;;14.50;99.90;;;;;;5149449;27;20532;-66
2023/06/09 04:56:57;;;;;;;11.97;8.73;;;14.60;99.90;;;;;;5149399;27;20497;-66
2023/06/09 04:59:28;;;;;;;10.13;9.03;;;14.70;99.90;;;;;;5149469;27;20456;-66
2023/06/09 05:01:55;;;;;;;11.80;9.43;;;14.80;99.90;;;;;;5149440;27;20415;-66
2023/06/09 05:04:21;;;;;;;10.70;9.00;;;14.90;99.90;;;;;;5130436;27;20411;-65
2023/06/09 05:06:46;;;;;;;11.40;9.50;;;14.90;99.90;;;;;;5149336;27;20419;-65
2023/06/09 05:09:12;;;;;;;10.03;7.90;;;15.00;99.90;;;;;;5149734;27;20475;-66
2023/06/09 05:11:38;;;;;;;14.70;9.37;;;15.10;99.90;;;;;;5149236;27;20181;-66
2023/06/09 05:14:07;;;;;;;10.40;9.40;;;15.30;99.90;;;;;;5149034;27;20261;-66
2023/06/09 05:16:35;;;;;;;9.50;8.30;;;15.30;99.90;;;;;;5148867;27;20301;-66
2023/06/09 05:19:01;;;;;;;9.60;8.67;;;15.40;99.90;;;;;;5148570;27;20655;-66
2023/06/09 05:21:27;;;;;;;9.43;8.27;;;15.60;99.90;;;;;;5148351;27;20415;-66
2023/06/09 05:23:53;;;;;;;18.63;10.40;;;15.50;99.90;;;;;;5148737;27;20426;-66
2023/06/09 05:26:20;;;;;;;14.67;9.33;;;15.50;99.90;;;;;;5148171;27;20300;-66
2023/06/09 05:28:48;;;;;;;12.13;10.07;;;15.60;99.90;;;;;;5148283;27;20474;-66
2023/06/09 05:31:15;;;;;;;13.57;10.13;;;15.60;99.90;;;;;;5129804;27;20424;-66
2023/06/09 05:33:41;;;;;;;11.67;10.47;;;15.60;99.90;;;;;;5148471;27;20418;-65
2023/06/09 05:36:08;;;;;;;12.60;10.70;;;15.70;99.90;;;;;;5148386;27;20424;-66
2023/06/09 05:38:34;;;;;;;12.27;10.43;;;15.70;99.90;;;;;;5148344;27;20434;-66
2023/06/09 05:40:59;;;;;;;13.87;10.10;;;15.80;99.90;;;;;;5148187;27;20535;-65
2023/06/09 05:43:27;;;;;;;13.13;11.07;;;15.90;99.90;;;;;;5129522;27;20188;-66
2023/06/09 05:45:52;;;;;;;14.50;11.20;;;16.10;99.90;;;;;;5151225;27;20184;-66
2023/06/09 05:48:18;;;;;;;14.77;9.47;;;16.10;99.90;;;;;;5152524;27;20431;-66
2023/06/09 05:50:45;;;;;;;11.97;9.50;;;16.30;99.90;;;;;;5152875;27;20628;-66
2023/06/09 05:53:11;;;;;;;15.33;9.93;;;16.40;99.90;;;;;;5133984;27;21064;-66
2023/06/09 05:55:38;;;;;;;14.07;8.97;;;16.60;99.90;;;;;;5152730;27;20504;-66
2023/06/09 05:58:03;;;;;;;8.83;7.93;;;16.70;99.90;;;;;;5152524;27;20693;-67
2023/06/09 06:00:30;;;;;;;9.70;8.70;;;16.90;99.90;;;;;;5152699;27;20464;-66
2023/06/09 06:02:57;;;;;;;11.53;8.60;;;17.20;99.90;;;;;;5152710;27;20216;-64
2023/06/09 06:05:22;;;;;;;11.30;9.10;;;17.40;99.90;;;;;;5152615;27;20408;-65
2023/06/09 06:07:48;;;;;;;14.93;8.63;;;17.60;99.90;;;;;;5152477;27;21021;-65
2023/06/09 06:10:14;;;;;;;11.00;8.07;;;17.60;99.90;;;;;;5152370;27;20199;-67
2023/06/09 06:12:40;;;;;;;11.27;7.80;;;17.90;99.90;;;;;;5152503;27;20187;-66
2023/06/09 06:15:06;;;;;;;16.20;8.50;;;18.10;99.90;;;;;;5152071;27;20803;-66
2023/06/09 06:17:31;;;;;;;11.57;8.50;;;18.30;99.90;;;;;;5151949;27;20632;-65
2023/06/09 06:19:57;;;;;;;10.10;8.30;;;18.40;99.90;;;;;;5151951;27;20480;-67
2023/06/09 06:22:24;;;;;;;10.70;9.00;;;18.50;99.90;;;;;;5152019;27;20180;-65
2023/06/09 06:24:49;;;;;;;9.67;8.50;;;18.60;99.90;;;;;;5132670;27;20421;-65
2023/06/09 06:27:15;;;;;;;16.17;8.60;;;18.70;99.90;;;;;;5151397;27;20465;-66
2023/06/09 06:29:41;;;;;;;9.17;7.70;;;18.70;99.90;;;;;;5151751;27;20177;-66
2023/06/09 06:32:08;;;;;;;10.77;9.07;;;18.90;99.90;;;;;;5151779;27;20187;-65
2023/06/09 06:34:33;;;;;;;13.10;8.40;;;19.00;99.90;;;;;;5151803;27;20676;-65
2023/06/09 06:37:00;;;;;;;11.80;9.70;;;19.10;99.90;;;;;;5151997;27;20421;-66
2023/06/09 06:39:25;;;;;;;15.33;9.57;;;19.20;99.90;;;;;;5151891;27;20256;-65
2023/06/09 06:41:51;;;;;;;9.87;7.70;;;19.20;99.90;;;;;;5116046;27;20847;-66
2023/06/09 06:44:17;;;;;;;11.73;8.10;;;19.30;99.90;;;;;;5152262;27;20258;-66
2023/06/09 06:46:42;;;;;;;10.00;7.90;;;19.30;99.90;;;;;;5151919;27;20168;-65
2023/06/09 06:49:08;;;;;;;9.27;7.70;;;19.50;99.90;;;;;;5151612;27;20269;-65
2023/06/09 06:51:33;;;;;;;9.93;8.03;;;19.60;99.90;;;;;;5151795;27;20172;-66
2023/06/09 06:53:59;;;;;;;12.67;8.73;;;19.70;99.90;;;;;;5151507;27;20179;-65
2023/06/09 06:56:25;;;;;;;10.80;8.93;;;19.80;99.90;;;;;;5150194;27;20258;-66
2023/06/09 06:58:52;;;;;;;8.67;7.77;;;19.90;99.90;;;;;;5151062;27;20232;-66
2023/06/09 07:01:20;;;;;;;16.40;9.00;;;20.00;99.90;;;;;;5150876;27;20472;-66
2023/06/09 07:03:46;;;;;;;16.90;8.10;;;20.00;99.90;;;;;;5151046;27;20521;-69
2023/06/09 07:06:12;;;;;;;11.20;8.03;;;20.00;99.90;;;;;;5132690;27;20448;-70
2023/06/09 07:08:37;;;;;;;9.07;8.10;;;20.00;99.90;;;;;;5150824;27;20468;-71
2023/06/09 07:11:03;;;;;;;11.57;9.17;;;20.10;99.90;;;;;;5151075;27;20669;-71
2023/06/09 07:13:29;;;;;;;9.00;7.53;;;20.10;99.90;;;;;;5131876;27;20775;-70
2023/06/09 07:15:55;;;;;;;8.33;7.53;;;20.20;99.90;;;;;;5131680;27;20707;-70
2023/06/09 07:18:20;;;;;;;10.83;8.40;;;20.40;99.90;;;;;;5150326;27;20610;-70
2023/06/09 07:20:48;;;;;;;11.83;6.60;;;20.40;99.90;;;;;;5150385;27;20236;-69
2023/06/09 07:23:14;;;;;;;9.87;7.00;;;20.60;99.90;;;;;;5150537;27;20177;-69
2023/06/09 07:25:39;;;;;;;11.53;7.53;;;20.60;99.90;;;;;;5150852;27;20432;-69
2023/06/09 07:28:05;;;;;;;8.47;7.67;;;20.70;99.90;;;;;;5150996;27;20464;-69
2023/06/09 07:30:31;;;;;;;8.27;7.10;;;20.80;99.90;;;;;;5151116;27;20191;-70
2023/06/09 07:32:56;;;;;;;8.67;7.73;;;20.90;99.90;;;;;;5132038;27;20272;-70
2023/06/09 07:35:23;;;;;;;9.47;7.10;;;20.90;99.90;;;;;;5157408;27;20200;-70
2023/06/09 07:37:50;;;;;;;8.13;6.67;;;21.00;99.90;;;;;;5136429;27;20585;-70
2023/06/09 07:40:16;;;;;;;7.03;6.33;;;20.90;99.90;;;;;;5151937;27;20840;-70
2023/06/09 07:42:41;;;;;;;7.63;6.90;;;21.00;99.90;;;;;;5152763;27;20421;-70
2023/06/09 07:45:08;;;;;;;8.60;6.90;;;21.10;99.90;;;;;;5152500;27;20436;-70
2023/06/09 07:47:33;;;;;;;10.03;7.50;;;21.10;99.90;;;;;;5154257;27;20265;-69
2023/06/09 07:49:59;;;;;;;8.97;7.37;;;21.20;99.90;;;;;;5153027;27;20422;-70
2023/06/09 07:52:25;;;;;;;11.73;7.10;;;21.20;99.90;;;;;;5134155;27;20615;-70
2023/06/09 07:54:50;;;;;;;7.23;6.53;;;21.30;99.90;;;;;;5134016;27;20204;-70
2023/06/09 07:57:16;;;;;;;7.77;7.03;;;21.30;99.90;;;;;;5151008;27;20860;-70
2023/06/09 07:59:42;;;;;;;7.13;6.43;;;21.50;99.90;;;;;;5149452;27;20223;-67
2023/06/09 08:02:08;;;;;;;8.07;7.23;;;21.60;99.90;;;;;;5149513;27;20188;-67
2023/06/09 08:04:34;;;;;;;10.30;6.40;;;21.80;99.90;;;;;;5149806;27;20181;-67
2023/06/09 08:06:59;;;;;;;8.10;6.20;;;21.80;99.90;;;;;;5149473;27;20429;-67
2023/06/09 08:09:26;;;;;;;7.20;5.73;;;21.90;99.90;;;;;;5149818;27;20184;-67
2023/06/09 08:11:52;;;;;;;10.17;6.20;;;22.20;99.90;;;;;;5149317;27;20640;-67
2023/06/09 08:14:17;;;;;;;7.03;5.87;;;22.30;99.90;;;;;;5149349;27;20430;-67
2023/06/09 08:16:44;;;;;;;13.20;5.27;;;22.30;99.90;;;;;;5149344;27;20421;-67
2023/06/09 08:19:09;;;;;;;6.07;5.50;;;22.60;99.90;;;;;;5149228;27;20207;-67
2023/06/09 08:21:42;;;;;;;6.40;5.27;;;22.60;99.90;;;;;;5149086;27;20431;-67
2023/06/09 08:24:08;;;;;;;10.07;5.20;;;22.60;99.90;;;;;;5130404;27;20185;-66
2023/06/09 08:26:34;;;;;;;10.50;7.20;;;22.80;99.90;;;;;;5149194;27;20579;-67
2023/06/09 08:29:01;;;;;;;7.27;5.57;;;22.90;99.90;;;;;;5149194;27;20534;-67
2023/06/09 08:31:27;;;;;;;5.63;5.10;;;23.10;99.90;;;;;;5149235;27;20213;-66
2023/06/09 08:33:54;;;;;;;8.80;5.40;;;23.30;99.90;;;;;;5130760;27;20435;-67
2023/06/09 08:36:20;;;;;;;8.90;4.70;;;23.50;99.90;;;;;;5149255;27;20933;-66
2023/06/09 08:38:46;;;;;;;5.93;5.00;;;23.60;99.80;;;;;;5130207;27;20536;-67
2023/06/09 08:41:14;;;;;;;9.77;5.60;;;23.80;98.10;;;;;;5149135;27;21255;-67
2023/06/09 08:43:40;;;;;;;8.53;5.10;;;23.90;96.40;;;;;;5148888;27;20209;-67
2023/06/09 08:46:09;;;;;;;8.10;5.67;;;23.90;97.90;;;;;;5148970;27;20412;-67
2023/06/09 08:48:41;;;;;;;5.47;4.97;;;24.00;99.10;;;;;;5149066;27;20439;-67
2023/06/09 08:51:08;;;;;;;8.03;4.50;;;24.20;96.10;;;;;;5148985;27;20475;-67
2023/06/09 08:53:34;;;;;;;4.17;3.77;;;24.40;95.60;;;;;;5148891;27;20422;-67
2023/06/09 08:56:01;;;;;;;7.90;3.67;;;24.70;93.80;;;;;;5149102;27;20428;-67
2023/06/09 08:58:27;;;;;;;6.93;4.57;;;24.80;93.00;;;;;;5148889;27;20444;-67
2023/06/09 09:00:54;;;;;;;8.57;4.60;;;24.90;91.80;;;;;;5148799;27;20456;-68
2023/06/09 09:03:20;;;;;;;5.60;3.80;;;25.30;91.60;;;;;;5149040;27;20446;-67
2023/06/09 09:05:47;;;;;;;3.60;3.20;;;25.40;90.60;;;;;;5130567;27;20519;-67
2023/06/09 09:08:14;;;;;;;3.57;3.27;;;25.80;90.00;;;;;;5149313;27;20452;-67
2023/06/09 09:10:45;;;;;;;4.03;3.73;;;26.00;84.00;;;;;;5149475;27;20474;-67
2023/06/09 09:13:11;;;;;;;3.37;3.00;;;26.10;83.30;;;;;;5149214;27;20444;-67
2023/06/09 09:15:37;;;;;;;5.23;3.60;;;26.50;82.30;;;;;;5149329;27;20802;-66
2023/06/09 09:18:07;;;;;;;3.80;3.50;;;26.70;78.40;;;;;;5148991;27;20489;-67
2023/06/09 09:20:35;;;;;;;4.17;3.77;;;26.60;76.10;;;;;;5151088;27;20461;-68
2023/06/09 09:23:03;;;;;;;4.07;3.67;;;26.50;76.30;;;;;;5153100;27;20469;-67
2023/06/09 09:25:30;;;;;;;4.10;3.00;;;26.50;75.90;;;;;;5153138;27;20977;-68
2023/06/09 09:28:07;;;;;;;3.93;3.63;;;26.80;75.20;;;;;;5153323;27;20835;-68
2023/06/09 09:30:42;;;;;;;3.40;3.20;;;26.80;74.40;;;;;;5134768;27;20480;-67
2023/06/09 09:33:09;;;;;;;3.80;3.50;;;27.20;73.80;;;;;;5153273;27;20421;-67
2023/06/09 09:35:44;;;;;;;4.27;3.53;;;26.90;72.90;;;;;;5153253;27;20416;-67
2023/06/09 09:38:36;;;;;;;3.30;3.10;;;27.20;73.40;;;;;;5153169;27;20536;-67
2023/06/09 09:41:04;;;;;;;5.07;3.57;;;27.40;72.70;;;;;;5147990;27;21001;-68
2023/06/09 09:43:30;;;;;;;4.10;3.07;;;27.50;70.90;;;;;;5152961;27;20466;-67
2023/06/09 09:46:01;;;;;;;4.87;3.57;;;27.50;71.50;;;;;;5152783;27;20932;-68
2023/06/09 09:48:27;;;;;;;3.90;3.47;;;27.80;71.90;;;;;;5152591;27;20489;-68
2023/06/09 09:50:54;;;;;;;4.93;3.80;;;28.20;70.10;;;;;;5152565;27;20474;-70
2023/06/09 09:53:24;;;;;;;6.67;3.43;;;27.90;68.60;;;;;;5134141;27;20521;-69
2023/06/09 09:55:53;;;;;;;3.40;3.10;;;27.70;69.00;;;;;;5153077;27;20512;-68
2023/06/09 09:58:20;;;;;;;5.17;3.47;;;27.60;69.20;;;;;;5133860;27;21086;-69
2023/06/09 10:00:47;;;;;;;6.10;3.50;;;27.30;68.60;;;;;;5152349;27;20494;-68
2023/06/09 10:03:17;;;;;;;3.80;3.50;;;26.60;68.30;;;;;;5152394;27;20414;-69
2023/06/09 10:05:48;;;;;;;6.83;4.27;;;26.90;69.80;;;;;;5152160;27;20425;-68
2023/06/09 10:08:21;;;;;;;7.87;3.57;;;26.90;68.90;;;;;;5152751;27;20845;-68
2023/06/09 10:10:47;;;;;;;3.33;3.07;;;26.50;68.30;;;;;;5152319;27;20906;-68
2023/06/09 10:13:14;;;;;;;4.20;3.33;;;26.60;70.00;;;;;;5152404;27;20524;-68
2023/06/09 10:15:43;;;;;;;4.73;3.50;;;26.80;69.00;;;;;;5134162;27;20425;-68
2023/06/09 10:18:10;;;;;;;4.53;3.40;;;27.00;69.40;;;;;;5133488;27;20443;-68
2023/06/09 10:20:36;;;;;;;3.80;3.50;;;27.00;68.90;;;;;;5152357;27;20461;-68
2023/06/09 10:23:04;;;;;;;3.60;3.30;;;26.80;68.80;;;;;;5152239;27;20943;-69
2023/06/09 10:25:30;;;;;;;4.97;3.30;;;26.90;69.10;;;;;;5152230;27;20441;-69
2023/06/09 10:27:56;;;;;;;3.60;3.27;;;27.10;69.90;;;;;;5152051;27;20453;-69
2023/06/09 10:30:22;;;;;;;3.97;3.67;;;27.10;66.60;;;;;;5151960;27;20463;-69
2023/06/09 10:32:58;;;;;;;3.37;3.07;;;27.00;66.20;;;;;;5150874;27;20664;-69
2023/06/09 10:35:29;;;;;;;8.60;3.30;;;27.00;65.20;;;;;;5134509;27;20184;-69
2023/06/09 10:37:56;;;;;;;3.90;3.60;;;26.90;65.70;;;;;;5151745;27;20504;-69
2023/06/09 10:40:47;;;;;;;3.30;3.10;;;27.00;67.50;;;;;;5132847;27;20468;-69
2023/06/09 10:43:26;;;;;;;3.40;3.10;;;27.20;66.70;;;;;;5151898;27;20445;-68
2023/06/09 10:45:53;;;;;;;3.73;3.13;;;27.00;61.80;;;;;;5151896;27;20421;-69
2023/06/09 10:48:48;;;;;;;3.53;3.20;;;27.20;64.80;;;;;;5151586;27;20449;-69
2023/06/09 10:51:26;;;;;;;3.47;3.17;;;27.20;65.50;;;;;;5141772;27;20942;-69
2023/06/09 10:54:10;;;;;;;2.90;2.70;;;27.50;63.30;;;;;;5151518;27;20421;-68
2023/06/09 10:56:35;;;;;;;3.07;2.77;;;27.70;62.10;;;;;;5151553;27;20414;-69
2023/06/09 10:59:02;;;;;;;3.83;2.63;;;27.40;60.50;;;;;;5151737;27;20440;-69
2023/06/09 11:01:28;;;;;;;3.13;2.80;;;27.10;61.90;;;;;;5151259;27;20204;-69
2023/06/09 11:03:53;;;;;;;3.40;3.13;;;27.30;61.10;;;;;;5151465;27;20946;-69
2023/06/09 11:06:20;;;;;;;6.30;3.07;;;27.50;63.30;;;;;;5151153;27;20263;-68
2023/06/09 11:09:14;;;;;;;3.13;2.93;;;27.60;63.90;;;;;;5150857;27;20216;-69
2023/06/09 11:11:50;;;;;;;2.83;2.63;;;27.80;61.70;;;;;;5150819;27;20413;-72
2023/06/09 11:14:44;;;;;;;2.67;2.47;;;27.60;60.50;;;;;;5131679;27;20422;-68
2023/06/09 11:17:16;;;;;;;5.57;3.10;;;27.50;59.70;;;;;;5150451;27;20453;-69
2023/06/09 11:19:42;;;;;;;7.13;2.43;;;27.60;60.90;;;;;;5150481;27;20458;-70
2023/06/09 11:22:12;;;;;;;7.00;2.90;;;27.70;62.40;;;;;;5131463;27;20469;-68
2023/06/09 11:24:46;;;;;;;3.07;2.87;;;27.90;60.20;;;;;;5150453;27;20181;-74
2023/06/09 11:27:18;;;;;;;3.43;2.80;;;27.90;58.70;;;;;;5149972;27;20449;-72
2023/06/09 11:30:07;;;;;;;3.50;3.20;;;28.00;59.30;;;;;;5150095;27;20421;-72
2023/06/09 11:32:56;;;;;;;2.77;2.57;;;28.10;59.70;;;;;;5149847;27;20426;-70
2023/06/09 11:35:27;;;;;;;3.27;2.63;;;28.30;58.40;;;;;;5150207;27;20918;-72
2023/06/09 11:37:58;;;;;;;3.43;2.67;;;28.40;61.00;;;;;;5149893;27;20477;-71
2023/06/09 11:40:24;;;;;;;3.23;2.93;;;28.50;59.50;;;;;;5149809;27;20504;-69
2023/06/09 11:42:51;;;;;;;3.20;2.90;;;28.30;58.50;;;;;;5149577;27;20406;-72
2023/06/09 11:45:17;;;;;;;3.20;3.00;;;28.50;60.30;;;;;;5131016;27;20437;-71
2023/06/09 11:47:44;;;;;;;3.43;3.13;;;28.60;60.30;;;;;;5149824;27;20437;-73
2023/06/09 11:50:13;;;;;;;3.03;2.83;;;28.60;60.40;;;;;;5149997;27;20426;-72
2023/06/09 11:52:42;;;;;;;3.63;2.80;;;28.60;60.70;;;;;;5150255;27;20425;-72
2023/06/09 11:55:09;;;;;;;3.10;2.90;;;28.50;62.40;;;;;;5131044;27;20426;-73
2023/06/09 11:57:35;;;;;;;5.43;3.27;;;28.50;60.90;;;;;;5149708;27;20441;-73
2023/06/09 12:00:18;;;;;;;3.23;2.87;;;28.50;60.30;;;;;;5149593;27;20522;-70
2023/06/09 12:02:47;;;;;;;4.63;3.10;;;28.50;60.40;;;;;;5150004;27;20501;-72
2023/06/09 12:05:14;;;;;;;5.70;3.50;;;28.30;60.60;;;;;;5150319;27;20449;-71
2023/06/09 12:07:44;;;;;;;3.70;3.10;;;28.00;59.40;;;;;;5150341;27;20812;-72
2023/06/09 12:10:11;;;;;;;5.67;3.37;;;27.90;60.30;;;;;;5150352;27;20425;-73
2023/06/09 12:12:46;;;;;;;4.53;3.27;;;27.70;60.90;;;;;;5150323;27;20414;-72
2023/06/09 12:15:13;;;;;;;3.10;2.90;;;27.30;61.30;;;;;;5149868;27;20466;-73
2023/06/09 12:17:39;;;;;;;5.43;3.17;;;27.20;64.10;;;;;;5131333;27;20445;-73
2023/06/09 12:20:34;;;;;;;3.47;3.17;;;27.30;62.70;;;;;;5131214;27;20544;-73
2023/06/09 12:23:07;;;;;;;6.70;3.30;;;27.20;63.50;;;;;;5149948;27;20481;-71
2023/06/09 12:25:37;;;;;;;7.63;3.13;;;26.90;63.20;;;;;;5149808;27;20486;-72
2023/06/09 12:28:26;;;;;;;9.90;2.83;;;26.70;62.90;;;;;;5149556;27;20449;-72
2023/06/09 12:31:11;;;;;;;3.17;2.87;;;26.90;63.40;;;;;;5131102;27;20541;-72
2023/06/09 12:33:38;;;;;;;3.00;2.80;;;27.20;63.70;;;;;;5149381;27;20422;-72
2023/06/09 12:36:09;;;;;;;2.93;2.73;;;27.40;62.50;;;;;;5130593;27;20472;-72
2023/06/09 12:38:37;;;;;;;3.23;2.60;;;27.60;63.30;;;;;;5149156;27;20547;-72
2023/06/09 12:41:08;;;;;;;2.83;2.63;;;27.70;61.60;;;;;;5149656;27;21053;-72
2023/06/09 12:43:45;;;;;;;4.63;2.70;;;27.90;62.00;;;;;;5130665;27;20432;-72
2023/06/09 12:46:12;;;;;;;2.90;2.70;;;28.10;62.30;;;;;;5149727;27;20421;-72
2023/06/09 12:49:05;;;;;;;6.73;3.10;;;27.90;61.00;;;;;;5149225;27;20942;-71